createdAt,value
2023-04-25T00:02:11.023Z,99.90
2023-04-25T00:07:14.441Z,99.90
2023-04-25T00:12:18.465Z,99.90
2023-04-25T00:17:21.799Z,99.90
2023-04-25T00:22:25.224Z,99.90
2023-04-25T00:27:28.497Z,99.90
2023-04-25T00:32:32.004Z,99.90
2023-04-25T00:37:35.228Z,99.90
2023-04-25T00:42:39.423Z,99.90
2023-04-25T00:47:43.742Z,99.90
2023-04-25T00:52:47.546Z,99.90
2023-04-25T00:57:52.016Z,99.90
2023-04-25T01:02:55.557Z,99.90
2023-04-25T01:07:58.959Z,99.90
2023-04-25T01:13:02.223Z,99.90
2023-04-25T01:18:07.974Z,99.90
2023-04-25T01:23:11.616Z,99.90
2023-04-25T01:28:15.106Z,99.90
2023-04-25T01:33:20.590Z,99.90
2023-04-25T01:38:23.837Z,99.90
2023-04-25T01:43:27.954Z,99.90
2023-04-25T01:48:31.358Z,99.90
2023-04-25T01:53:35.075Z,99.90
2023-04-25T01:58:38.247Z,99.90
2023-04-25T02:03:41.850Z,99.90
2023-04-25T02:08:45.135Z,99.90
2023-04-25T02:13:48.688Z,99.90
2023-04-25T02:18:54.067Z,99.90
2023-04-25T02:23:57.607Z,99.90
2023-04-25T02:29:01.342Z,99.90
2023-04-25T02:34:04.645Z,99.90
2023-04-25T02:39:08.392Z,99.90
2023-04-25T02:44:11.619Z,99.90
2023-04-25T02:49:14.928Z,99.90
2023-04-25T02:54:18.577Z,99.90
2023-04-25T02:59:21.677Z,99.90
2023-04-25T03:04:25.377Z,99.90
2023-04-25T03:09:28.815Z,99.90
2023-04-25T03:14:32.154Z,99.90
2023-04-25T03:19:35.386Z,99.90
2023-04-25T03:24:38.668Z,99.90
2023-04-25T03:29:42.157Z,99.90
2023-04-25T03:34:45.817Z,99.90
2023-04-25T03:39:49.120Z,99.90
2023-04-25T03:44:53.194Z,99.90
2023-04-25T03:53:12.868Z,99.90
2023-04-25T03:58:16.378Z,99.90
2023-04-25T04:03:19.661Z,99.90
2023-04-25T04:08:22.972Z,99.90
2023-04-25T04:13:31.370Z,99.90
2023-04-25T04:18:34.877Z,99.90
2023-04-25T04:23:39.823Z,99.90
2023-04-25T04:28:44.227Z,99.90
2023-04-25T04:33:48.128Z,99.90
2023-04-25T04:38:51.427Z,99.90
2023-04-25T04:43:54.686Z,99.90
2023-04-25T04:48:57.925Z,99.90
2023-04-25T04:54:03.809Z,99.90
2023-04-25T04:59:07.020Z,99.90
2023-04-25T05:04:10.488Z,99.90
2023-04-25T05:09:14.046Z,99.90
2023-04-25T05:14:18.529Z,99.90
2023-04-25T05:19:22.138Z,99.90
2023-04-25T05:24:25.320Z,99.90
2023-04-25T05:29:28.635Z,99.90
2023-04-25T05:34:32.113Z,99.90
2023-04-25T05:39:35.941Z,99.90
2023-04-25T05:44:43.334Z,99.90
2023-04-25T05:49:46.603Z,99.90
2023-04-25T05:54:50.235Z,99.90
2023-04-25T05:59:54.621Z,99.90
2023-04-25T06:04:58.387Z,99.90
2023-04-25T06:10:02.277Z,99.90
2023-04-25T06:15:19.943Z,99.90
2023-04-25T06:20:30.314Z,99.90
2023-04-25T06:25:33.647Z,99.90
2023-04-25T06:30:37.382Z,99.90
2023-04-25T06:35:41.052Z,99.90
2023-04-25T06:40:44.387Z,99.90
2023-04-25T06:45:48.649Z,99.90
2023-04-25T06:50:52.121Z,99.90
2023-04-25T06:55:55.790Z,99.90
2023-04-25T07:00:59.133Z,99.90
2023-04-25T07:06:02.563Z,99.90
2023-04-25T07:11:05.961Z,99.90
2023-04-25T07:16:09.125Z,99.90
2023-04-25T07:21:12.623Z,99.90
2023-04-25T07:26:16.175Z,99.90
2023-04-25T07:31:19.787Z,99.90
2023-04-25T07:36:22.946Z,99.90
2023-04-25T07:41:26.199Z,99.90
2023-04-25T07:46:29.575Z,99.90
2023-04-25T07:51:32.895Z,99.90
2023-04-25T07:56:49.195Z,99.90
2023-04-25T08:01:55.754Z,99.90
2023-04-25T08:06:58.969Z,99.90
2023-04-25T08:12:03.454Z,99.90
2023-04-25T08:17:06.944Z,99.90
2023-04-25T08:22:10.204Z,99.90
2023-04-25T08:27:13.961Z,99.90
2023-04-25T08:32:20.051Z,99.90
2023-04-25T08:37:23.512Z,99.90
2023-04-25T08:42:30.446Z,99.90
2023-04-25T08:47:35.892Z,99.90
2023-04-25T08:52:45.307Z,99.90
2023-04-25T08:57:48.738Z,99.90
2023-04-25T09:02:52.354Z,99.90
2023-04-25T09:07:55.660Z,99.90
2023-04-25T09:13:16.869Z,99.90
2023-04-25T09:18:30.918Z,99.90
2023-04-25T09:23:42.211Z,99.90
2023-04-25T09:28:47.118Z,99.90
2023-04-25T09:33:51.413Z,99.90
2023-04-25T09:38:56.581Z,99.90
2023-04-25T09:44:00.840Z,99.90
2023-04-25T09:49:08.632Z,99.90
2023-04-25T09:54:12.419Z,99.90
2023-04-25T09:59:16.822Z,99.90
2023-04-25T10:04:31.123Z,99.90
2023-04-25T10:09:39.152Z,99.90
2023-04-25T10:14:43.021Z,99.90
2023-04-25T10:19:46.894Z,99.90
2023-04-25T10:24:51.387Z,99.90
2023-04-25T10:30:06.248Z,99.90
2023-04-25T10:35:17.400Z,99.90
2023-04-25T10:40:24.596Z,99.90
2023-04-25T10:45:27.928Z,99.90
2023-04-25T10:50:40.623Z,99.90
2023-04-25T10:55:53.494Z,99.90
2023-04-25T11:00:57.758Z,99.90
2023-04-25T11:06:03.339Z,99.90
2023-04-25T11:11:07.152Z,99.90
2023-04-25T11:16:13.340Z,99.90
2023-04-25T11:21:17.743Z,99.90
2023-04-25T11:26:21.949Z,99.90
2023-04-25T11:31:26.998Z,99.90
2023-04-25T11:36:30.994Z,99.90
2023-04-25T11:41:34.481Z,99.90
2023-04-25T11:46:38.085Z,99.90
2023-04-25T11:51:46.495Z,99.90
2023-04-25T11:56:50.305Z,99.90
2023-04-25T12:01:53.477Z,99.00
2023-04-25T12:06:57.012Z,99.90
2023-04-25T12:12:04.348Z,99.30
2023-04-25T12:17:09.570Z,99.90
2023-04-25T12:22:26.248Z,99.90
2023-04-25T12:27:30.524Z,99.90
2023-04-25T12:32:33.574Z,99.90
2023-04-25T12:37:36.796Z,99.90
2023-04-25T12:42:40.416Z,99.80
2023-04-25T12:47:43.489Z,99.90
2023-04-25T12:52:46.842Z,99.90
2023-04-25T12:57:50.079Z,99.90
2023-04-25T13:02:53.602Z,99.90
2023-04-25T13:07:56.735Z,99.90
2023-04-25T13:12:59.990Z,99.90
2023-04-25T13:18:05.427Z,99.90
2023-04-25T13:23:08.695Z,99.50
2023-04-25T13:28:12.311Z,98.30
2023-04-25T13:33:17.252Z,98.60
2023-04-25T13:38:20.843Z,97.50
2023-04-25T13:43:24.315Z,98.00
2023-04-25T13:48:27.486Z,98.30
2023-04-25T13:53:30.888Z,98.80
2023-04-25T13:58:34.366Z,98.80
2023-04-25T14:03:37.588Z,98.30
2023-04-25T14:08:41.605Z,99.40
2023-04-25T14:13:45.487Z,99.50
2023-04-25T14:18:48.660Z,99.90
2023-04-25T14:23:52.464Z,99.80
2023-04-25T14:28:56.007Z,98.50
2023-04-25T14:33:59.907Z,99.90
2023-04-25T14:39:03.843Z,99.70
2023-04-25T14:44:07.714Z,99.90
2023-04-25T14:49:10.741Z,99.90
2023-04-25T14:54:14.578Z,99.90
2023-04-25T14:59:18.075Z,99.40
2023-04-25T15:04:21.548Z,99.80
2023-04-25T15:09:25.618Z,99.10
2023-04-25T15:14:28.855Z,99.40
2023-04-25T15:19:32.126Z,99.90
2023-04-25T15:24:35.811Z,99.90
2023-04-25T15:29:39.135Z,99.90
2023-04-25T15:34:42.335Z,99.90
2023-04-25T15:39:46.833Z,99.90
2023-04-25T15:44:52.649Z,99.90
2023-04-25T15:49:55.931Z,99.90
2023-04-25T15:54:59.626Z,99.90
2023-04-25T16:00:05.840Z,99.90
2023-04-25T16:05:09.744Z,99.90
2023-04-25T16:10:14.665Z,99.90
2023-04-25T16:15:18.538Z,99.90
2023-04-25T16:20:21.940Z,99.90
2023-04-25T16:25:27.662Z,99.90
2023-04-25T16:30:30.981Z,99.90
2023-04-25T16:35:34.576Z,99.90
2023-04-25T16:40:38.627Z,99.90
2023-04-25T16:45:42.365Z,99.90
2023-04-25T16:50:45.939Z,99.90
2023-04-25T16:55:49.182Z,99.90
2023-04-25T17:00:54.332Z,99.90
2023-04-25T17:05:58.362Z,99.90
2023-04-25T17:11:03.340Z,99.90
2023-04-25T17:16:07.913Z,99.90
2023-04-25T17:21:12.312Z,99.90
2023-04-25T17:26:16.603Z,99.90
2023-04-25T17:31:21.246Z,99.90
2023-04-25T17:36:26.709Z,99.90
2023-04-25T17:41:30.001Z,99.90
2023-04-25T17:46:35.545Z,99.90
2023-04-25T17:51:43.074Z,99.90
2023-04-25T17:56:47.654Z,99.90
2023-04-25T18:01:51.732Z,99.90
2023-04-25T18:06:56.736Z,99.90
2023-04-25T18:12:02.162Z,99.90
2023-04-25T18:17:08.489Z,99.90
2023-04-25T18:22:15.298Z,99.90
2023-04-25T18:27:22.348Z,99.90
2023-04-25T18:32:30.729Z,99.90
2023-04-25T18:37:42.291Z,99.90
2023-04-25T18:42:49.285Z,99.90
2023-04-25T18:47:54.832Z,99.90
2023-04-25T18:53:01.154Z,99.90
2023-04-25T18:58:09.760Z,99.90
2023-04-25T19:03:14.389Z,99.90
2023-04-25T19:08:19.610Z,99.90
2023-04-25T19:13:23.866Z,99.90
2023-04-25T19:18:28.388Z,99.90
2023-04-25T19:23:34.160Z,99.90
2023-04-25T19:28:40.570Z,99.90
2023-04-25T19:33:48.460Z,99.90
2023-04-25T19:39:02.242Z,99.90
2023-04-25T19:44:09.343Z,99.90
2023-04-25T19:49:15.056Z,99.90
2023-04-25T19:54:21.628Z,99.90
2023-04-25T19:59:28.551Z,99.90
2023-04-25T20:04:36.503Z,99.90
2023-04-25T20:09:43.452Z,99.90
2023-04-25T20:14:47.579Z,99.90
2023-04-25T20:19:52.143Z,99.90
2023-04-25T20:24:55.569Z,99.90
2023-04-25T20:30:03.544Z,99.90
2023-04-25T20:35:10.486Z,99.90
2023-04-25T20:40:16.823Z,99.90
2023-04-25T20:45:20.072Z,99.90
2023-04-25T20:50:23.836Z,99.90
2023-04-25T20:55:27.481Z,99.90
2023-04-25T21:00:30.840Z,99.90
2023-04-25T21:05:34.270Z,99.90
2023-04-25T21:10:37.785Z,99.90
2023-04-25T21:15:41.248Z,99.90
2023-04-25T21:20:44.684Z,99.90
2023-04-25T21:25:49.278Z,99.90
2023-04-25T21:30:53.273Z,99.90
2023-04-25T21:35:56.967Z,99.90
2023-04-25T21:41:00.603Z,99.90
2023-04-25T21:51:10.138Z,99.90
2023-04-25T21:56:13.739Z,99.90
2023-04-25T22:01:17.015Z,99.90
2023-04-25T22:06:20.665Z,99.90
2023-04-25T22:11:24.852Z,99.90
2023-04-25T22:16:29.595Z,99.90
2023-04-25T22:21:32.832Z,99.90
2023-04-25T22:26:36.251Z,99.90
2023-04-25T22:31:39.596Z,99.90
2023-04-25T22:36:42.833Z,99.90
2023-04-25T22:41:46.809Z,99.90
2023-04-25T22:46:50.652Z,99.90
2023-04-25T22:51:56.699Z,99.90
2023-04-25T22:57:00.249Z,99.90
2023-04-25T23:02:04.280Z,99.90
2023-04-25T23:07:07.516Z,99.90
2023-04-25T23:12:11.086Z,99.90
2023-04-25T23:17:14.850Z,99.90
2023-04-25T23:22:18.150Z,99.90
2023-04-25T23:27:21.609Z,99.90
2023-04-25T23:32:26.599Z,99.90
2023-04-25T23:37:31.592Z,99.90
2023-04-25T23:42:35.221Z,99.90
2023-04-25T23:47:38.952Z,99.90
2023-04-25T23:52:42.381Z,99.90
2023-04-25T23:57:45.707Z,99.90
